createdAt,value
2022-09-30T00:02:35.387Z,100818.75
2022-09-30T00:07:39.922Z,100834.91
2022-09-30T00:12:42.934Z,100839.06
2022-09-30T00:17:46.023Z,100835.44
2022-09-30T00:22:50.463Z,100828.19
2022-09-30T00:27:53.471Z,100830.72
2022-09-30T00:32:56.602Z,100802.03
2022-09-30T00:38:01.238Z,100839.03
2022-09-30T00:43:04.351Z,100845.94
2022-09-30T00:48:11.111Z,100843.47
2022-09-30T00:53:19.908Z,100840.84
2022-09-30T00:58:29.095Z,100845.84
2022-09-30T01:03:35.062Z,100835.97
2022-09-30T01:08:41.582Z,100843.19
2022-09-30T01:13:48.246Z,100841.53
2022-09-30T01:19:05.465Z,100843.09
2022-09-30T01:24:42.284Z,100773.03
2022-09-30T01:30:12.506Z,100850.47
2022-09-30T01:35:24.455Z,100838.47
2022-09-30T01:40:41.169Z,100844.41
2022-09-30T01:45:50.627Z,100806.25
2022-09-30T01:51:01.828Z,100863.84
2022-09-30T01:56:13.740Z,100863.75
2022-09-30T02:01:22.798Z,100852.75
2022-09-30T02:06:32.294Z,100853.78
2022-09-30T02:11:37.389Z,100782.25
2022-09-30T02:16:43.672Z,100854.59
2022-09-30T02:21:57.141Z,100844.75
2022-09-30T02:27:02.572Z,100842.31
2022-09-30T02:32:13.450Z,100849.25
2022-09-30T02:37:22.499Z,100839.38
2022-09-30T02:42:28.847Z,100842.25
2022-09-30T02:47:44.933Z,100810.88
2022-09-30T02:53:02.936Z,100828.53
2022-09-30T02:58:13.077Z,100840.16
2022-09-30T03:03:21.630Z,100835.47
2022-09-30T03:08:27.305Z,100849.44
2022-09-30T03:13:57.048Z,100836.88
2022-09-30T03:19:14.603Z,100858.16
2022-09-30T03:24:36.213Z,100862.63
2022-09-30T03:29:48.618Z,100874.69
2022-09-30T03:35:04.682Z,100884.31
2022-09-30T03:40:17.691Z,100894.88
2022-09-30T03:45:30.697Z,100879.84
2022-09-30T03:50:36.478Z,100887.53
2022-09-30T03:55:54.279Z,100894.72
2022-09-30T04:01:00.209Z,100912.94
2022-09-30T04:06:03.850Z,100898.75
2022-09-30T04:11:08.396Z,100914.69
2022-09-30T04:16:11.669Z,100913.84
2022-09-30T04:21:18.403Z,100923.38
2022-09-30T04:26:23.202Z,100926.59
2022-09-30T04:31:27.003Z,100934.06
2022-09-30T04:36:33.265Z,100932.22
2022-09-30T04:41:38.341Z,100926.81
2022-09-30T04:46:44.179Z,100929.81
2022-09-30T04:51:47.504Z,100935.94
2022-09-30T04:56:52.327Z,100910.94
2022-09-30T05:01:55.426Z,100948.22
2022-09-30T05:07:01.971Z,100946.34
2022-09-30T05:12:06.783Z,100876.31
2022-09-30T05:17:10.218Z,100881.66
2022-09-30T05:22:14.157Z,100917.56
2022-09-30T05:27:18.865Z,100960.59
2022-09-30T05:32:22.646Z,100971.91
2022-09-30T05:37:25.891Z,100974.50
2022-09-30T05:42:32.630Z,100952.06
2022-09-30T05:47:35.787Z,100978.09
2022-09-30T05:52:38.874Z,100987.81
2022-09-30T05:57:43.551Z,100984.38
2022-09-30T06:02:46.749Z,100982.66
2022-09-30T06:07:50.440Z,100982.38
2022-09-30T06:12:54.929Z,100993.28
2022-09-30T06:18:00.677Z,100992.28
2022-09-30T06:23:04.629Z,100984.38
2022-09-30T06:28:08.949Z,101000.59
2022-09-30T06:33:12.659Z,100998.16
2022-09-30T06:38:17.296Z,101013.09
2022-09-30T06:43:22.051Z,100963.09
2022-09-30T06:48:36.627Z,101003.69
2022-09-30T06:53:41.880Z,100998.31
2022-09-30T06:58:46.777Z,101015.06
2022-09-30T07:03:54.031Z,100977.06
2022-09-30T07:08:57.878Z,100999.94
2022-09-30T07:14:04.509Z,101017.16
2022-09-30T07:19:10.359Z,101013.19
2022-09-30T07:24:15.323Z,101019.69
2022-09-30T07:29:19.761Z,101005.91
2022-09-30T07:34:22.903Z,101015.28
2022-09-30T07:39:26.320Z,101004.16
2022-09-30T07:44:31.638Z,101002.22
2022-09-30T07:49:34.819Z,101011.41
2022-09-30T07:54:42.508Z,101008.28
2022-09-30T07:59:48.928Z,101001.75
2022-09-30T08:04:52.145Z,101010.16
2022-09-30T08:09:55.521Z,100996.56
2022-09-30T08:15:00.191Z,100990.06
2022-09-30T08:20:03.284Z,100985.47
2022-09-30T08:25:07.510Z,100984.44
2022-09-30T08:30:13.283Z,101003.06
2022-09-30T08:35:16.619Z,101006.34
2022-09-30T08:40:22.895Z,101006.72
2022-09-30T08:45:37.516Z,101006.66
2022-09-30T08:50:53.039Z,101009.94
2022-09-30T08:56:02.786Z,101004.13
2022-09-30T09:01:18.004Z,101028.63
2022-09-30T09:06:37.470Z,101007.25
2022-09-30T09:11:54.747Z,101001.59
2022-09-30T09:17:15.406Z,101009.75
2022-09-30T09:22:23.849Z,101007.03
2022-09-30T09:27:37.106Z,101005.28
2022-09-30T09:32:43.278Z,101012.47
2022-09-30T09:38:15.338Z,101006.69
2022-09-30T09:43:27.541Z,101007.47
2022-09-30T09:48:36.404Z,101009.13
2022-09-30T09:53:45.915Z,100995.47
2022-09-30T09:59:10.510Z,101011.97
2022-09-30T10:04:19.166Z,101010.44
2022-09-30T10:09:31.861Z,101010.72
2022-09-30T10:14:36.989Z,101007.28
2022-09-30T10:19:49.068Z,101017.13
2022-09-30T10:25:09.874Z,101001.25
2022-09-30T10:30:12.925Z,101011.00
2022-09-30T10:35:23.710Z,101003.97
2022-09-30T10:40:32.054Z,100998.66
2022-09-30T10:45:41.376Z,101006.59
2022-09-30T10:50:51.874Z,101000.59
2022-09-30T10:55:56.315Z,100991.69
2022-09-30T11:01:08.195Z,100997.78
2022-09-30T11:06:16.337Z,100985.91
2022-09-30T11:11:23.046Z,101000.03
2022-09-30T11:16:33.390Z,100983.31
2022-09-30T11:21:43.401Z,100990.53
2022-09-30T11:26:59.264Z,100964.78
2022-09-30T11:32:15.451Z,100962.94
2022-09-30T11:37:29.948Z,100975.53
2022-09-30T11:42:41.336Z,100975.28
2022-09-30T11:47:59.817Z,100967.19
2022-09-30T11:53:19.104Z,100974.00
2022-09-30T11:58:40.898Z,100968.53
2022-09-30T12:03:51.038Z,100957.91
2022-09-30T12:09:00.914Z,100946.63
2022-09-30T12:14:11.926Z,100951.00
2022-09-30T12:19:23.052Z,100934.47
2022-09-30T12:24:36.963Z,100919.88
2022-09-30T12:30:01.014Z,100937.66
2022-09-30T12:35:24.657Z,100930.63
2022-09-30T12:40:45.164Z,100936.09
2022-09-30T12:46:05.420Z,100924.72
2022-09-30T12:51:09.603Z,100925.50
2022-09-30T12:56:16.761Z,100907.75
2022-09-30T13:01:24.282Z,100921.28
2022-09-30T13:06:29.504Z,100917.97
2022-09-30T13:11:45.333Z,100895.81
2022-09-30T13:17:20.242Z,100875.50
2022-09-30T13:22:57.640Z,100890.69
2022-09-30T13:28:32.249Z,100875.63
2022-09-30T13:33:44.660Z,100873.00
2022-09-30T13:38:48.013Z,100876.53
2022-09-30T13:44:03.366Z,100875.66
2022-09-30T13:49:13.469Z,100857.03
2022-09-30T13:54:26.585Z,100876.59
2022-09-30T13:59:49.431Z,100857.06
2022-09-30T14:05:23.183Z,100857.94
2022-09-30T14:10:58.884Z,100862.38
2022-09-30T14:16:33.609Z,100849.06
2022-09-30T14:21:40.817Z,100836.66
2022-09-30T14:27:04.777Z,100833.97
2022-09-30T14:32:19.947Z,100814.47
2022-09-30T14:37:28.847Z,100812.69
2022-09-30T14:42:36.833Z,100816.22
2022-09-30T14:47:46.579Z,100809.88
2022-09-30T14:52:57.089Z,100800.03
2022-09-30T14:58:23.443Z,100807.13
2022-09-30T15:03:29.128Z,100812.59
2022-09-30T15:08:32.543Z,100820.69
2022-09-30T15:13:36.216Z,100826.91
2022-09-30T15:18:47.987Z,100821.59
2022-09-30T15:23:53.892Z,100827.78
2022-09-30T15:28:56.969Z,100818.00
2022-09-30T15:34:13.741Z,100818.03
2022-09-30T15:39:23.700Z,100817.16
2022-09-30T15:44:39.059Z,100822.47
2022-09-30T15:49:50.428Z,100825.13
2022-09-30T15:54:53.537Z,100833.94
2022-09-30T16:00:02.320Z,100830.25
2022-09-30T16:05:09.183Z,100815.16
2022-09-30T16:10:22.174Z,100823.06
2022-09-30T16:15:25.529Z,100800.78
2022-09-30T16:20:30.229Z,100812.22
2022-09-30T16:25:34.470Z,100795.25
2022-09-30T16:30:42.617Z,100795.09
2022-09-30T16:35:48.304Z,100794.09
2022-09-30T16:40:51.368Z,100778.00
2022-09-30T16:45:54.658Z,100793.81
2022-09-30T16:51:06.666Z,100796.28
2022-09-30T16:56:16.191Z,100772.22
2022-09-30T17:01:21.522Z,100771.16
2022-09-30T17:06:29.811Z,100766.53
2022-09-30T17:11:36.205Z,100767.31
2022-09-30T17:16:39.227Z,100783.13
2022-09-30T17:21:43.685Z,100785.63
2022-09-30T17:26:46.719Z,100776.59
2022-09-30T17:31:50.044Z,100759.56
2022-09-30T17:36:55.613Z,100768.31
2022-09-30T17:42:16.517Z,100744.19
2022-09-30T17:47:21.458Z,100771.50
2022-09-30T17:52:33.111Z,100754.34
2022-09-30T17:57:40.013Z,100730.91
2022-09-30T18:02:44.817Z,100768.16
2022-09-30T18:07:49.293Z,100768.00
2022-09-30T18:12:55.141Z,100757.31
2022-09-30T18:18:00.390Z,100741.34
2022-09-30T18:23:05.018Z,100740.25
2022-09-30T18:28:08.945Z,100741.16
2022-09-30T18:33:11.952Z,100729.63
2022-09-30T18:38:16.392Z,100714.56
2022-09-30T18:43:20.567Z,100699.47
2022-09-30T18:48:27.353Z,100692.38
2022-09-30T18:53:34.778Z,100685.38
2022-09-30T18:58:39.408Z,100674.72
2022-09-30T19:03:42.676Z,100658.81
2022-09-30T19:08:47.159Z,100636.75
2022-09-30T19:13:53.163Z,100647.28
2022-09-30T19:18:57.629Z,100641.94
2022-09-30T19:24:06.620Z,100647.25
2022-09-30T19:29:12.003Z,100627.72
2022-09-30T19:34:26.114Z,100631.31
2022-09-30T19:39:45.584Z,100638.34
2022-09-30T19:44:49.489Z,100633.06
2022-09-30T19:49:52.572Z,100618.06
2022-09-30T19:55:08.005Z,100609.19
2022-09-30T20:00:16.572Z,100596.88
2022-09-30T20:05:19.594Z,100573.94
2022-09-30T20:10:24.102Z,100577.50
2022-09-30T20:15:46.374Z,100565.19
2022-09-30T20:20:50.042Z,100560.75
2022-09-30T20:25:55.260Z,100558.94
2022-09-30T20:30:58.306Z,100549.25
2022-09-30T20:36:01.686Z,100541.34
2022-09-30T20:41:07.836Z,100530.75
2022-09-30T20:46:11.828Z,100523.72
2022-09-30T20:51:17.575Z,100533.41
2022-09-30T20:56:23.463Z,100514.00
2022-09-30T21:01:26.531Z,100507.81
2022-09-30T21:06:31.062Z,100509.56
2022-09-30T21:11:35.586Z,100503.25
2022-09-30T21:16:38.942Z,100502.94
2022-09-30T21:21:42.028Z,100500.78
2022-09-30T21:26:46.554Z,100484.63
2022-09-30T21:31:49.788Z,100491.22
2022-09-30T21:36:52.857Z,100491.88
2022-09-30T21:41:57.629Z,100481.25
2022-09-30T21:47:03.499Z,100475.69
2022-09-30T21:52:09.273Z,100488.72
2022-09-30T21:57:13.838Z,100471.66
2022-09-30T22:02:17.040Z,100477.72
2022-09-30T22:07:21.846Z,100448.47
2022-09-30T22:12:26.359Z,100437.72
2022-09-30T22:17:31.313Z,100408.53
2022-09-30T22:22:34.697Z,100397.88
2022-09-30T22:27:39.039Z,100386.28
2022-09-30T22:32:42.074Z,100380.00
2022-09-30T22:37:58.949Z,100359.66
2022-09-30T22:43:33.537Z,100371.00
2022-09-30T22:48:37.020Z,100380.53
2022-09-30T22:53:39.979Z,100383.00
2022-09-30T22:58:46.804Z,100393.44
2022-09-30T23:03:54.139Z,100381.09
2022-09-30T23:08:58.487Z,100388.16
2022-09-30T23:14:03.961Z,100353.75
2022-09-30T23:19:07.071Z,100337.16
2022-09-30T23:24:10.780Z,100305.50
2022-09-30T23:29:16.051Z,100299.25
2022-09-30T23:34:19.245Z,100276.47
2022-09-30T23:39:22.407Z,100262.38
2022-09-30T23:44:28.646Z,100263.16
2022-09-30T23:49:35.856Z,100264.09
2022-09-30T23:54:39.002Z,100241.28
2022-09-30T23:59:43.320Z,100237.75
